Bodega Marine Reserve, California Weather observations

Data are for 10 minute period ending at time listed.
 Day   Time   Solar   Ave.   Ave.  Ave.  Vector  Max.   Baro.   Total    
  of    of     Rad.   Air    Rel.  Wind   Wind   Wind  Press.  Precip.   
Year   Day            Temp.  Hum.  Speed  Dir.   Gust                    
2014   (PST)  Kw/m2    F      %     mph   deg.    mph    mb.     in.     
-------------------------------------------------------------------------
 238   10:10   0.67   65.2    69    5.4   269     8.6   1014.6    0.00 
 238   10:20   0.71   65.4    68    5.5   281     8.8   1014.9    0.00 
 238   10:30   0.72   65.5    68    5.3   288     9.6   1014.9    0.00 
 238   10:40   0.75   65.7    68    5.5   286     9.2   1014.6    0.00 
 238   10:50   0.76   65.7    67    5.6   288    10.7   1014.6    0.00 
 238   11:00   0.77   65.3    68    5.2   286     9.3   1014.6    0.00 
 238   11:10   0.78   65.7    68    4.9   285     8.3   1014.6    0.00 
 238   11:20   0.80   65.5    68    6.1   291     9.9   1014.6    0.00 
 238   11:30   0.81   65.7    68    5.6   292     9.2   1014.6    0.00 
 238   11:40   0.81   66.2    67    6.4   287    10.3   1014.6    0.00 
 238   11:50   0.82   65.9    68    6.1   287    10.4   1014.6    0.00 
 238   12:00   0.82   66.0    68    6.5   288    10.2   1014.6    0.00 
 238   12:10   0.82   66.5    67    7.4   280    12.1   1014.6    0.00 
 238   12:20   0.82   66.6    66    8.0   274    12.1   1014.2    0.00 
 238   12:30   0.82   67.2    65    8.0   278    12.1   1014.2    0.00 
 238   12:40   0.82   67.5    65    8.2   298    12.3   1014.2    0.00 
 238   12:50   0.82   67.3    66    8.5   300    12.3   1014.2    0.00 
 238   13:00   0.81   67.7    65    7.4   282    12.1   1014.2    0.00 
 238   13:10   0.79   68.0    64    8.6   284    12.1   1013.9    0.00 
 238   13:20   0.80   67.5    65    9.1   278    12.6   1013.9    0.00 
 238   13:30   0.79   67.0    66    9.4   285    13.0   1013.9    0.00 
 238   13:40   0.78   67.3    66    9.1   288    12.1   1013.9    0.00 
 238   13:50   0.76   67.5    66    9.1   285    12.4   1013.5    0.00 
 238   14:00   0.75   67.7    65    9.7   283    12.9   1013.5    0.00 
 238   14:10   0.73   67.1    67    9.7   285    12.7   1013.5    0.00 
 238   14:20   0.72   67.2    67   10.5   285    13.4   1013.5    0.00 
 238   14:30   0.70   67.5    66   10.7   287    14.5   1013.2    0.00 
 238   14:40   0.68   67.4    67   10.5   286    14.0   1013.2    0.00 
 238   14:50   0.54   67.4    67   10.6   287    14.0   1013.2    0.00 
 238   15:00   0.48   67.7    67    9.2   287    13.1   1013.2    0.00 
 238   15:10   0.61   67.8    66   10.6   287    14.4   1013.2    0.00 
 238   15:20   0.58   67.6    67   10.6   287    13.9   1012.9    0.00 
 238   15:30   0.56   66.9    68   11.5   288    14.2   1012.9    0.00 
 238   15:40   0.53   67.2    68   12.1   288    15.4   1012.9    0.00 
 238   15:50   0.50   66.9    68   12.0   291    15.8   1012.9    0.00 
 238   16:00   0.16   67.0    68   11.8   291    17.0   1012.5    0.00 
 238   16:10   0.32   67.1    69   12.0   292    16.6   1012.5    0.00 
 238   16:20   0.42   66.2    70   14.1   292    17.4   1012.5    0.00 
 238   16:30   0.39   66.1    71   13.8   296    17.2   1012.2    0.00 
 238   16:40   0.28   66.1    70   13.1   294    17.8   1012.2    0.00 
 238   16:50   0.33   66.3    70   11.9   288    15.7   1012.2    0.00 
 238   17:00   0.30   66.5    70   10.3   287    14.7   1012.2    0.00 
 238   17:10   0.26   66.0    71   11.4   288    16.1   1012.2    0.00 
 238   17:20   0.11   65.5    72   12.4   287    17.9   1012.2    0.00 
 238   17:30   0.04   65.0    73   12.9   294    17.5   1011.9    0.00 
 238   17:40   0.16   64.7    74   11.7   294    16.4   1011.9    0.00 
 238   17:50   0.14   64.4    74   12.0   292    17.0   1011.9    0.00 
 238   18:00   0.11   63.8    75   12.0   295    17.0   1011.9    0.00 
 238   18:10   0.08   63.4    77   12.3   294    17.2   1011.9    0.00 
 238   18:20   0.07   63.0    79   12.4   293    16.5   1011.9    0.00 
 238   18:30   0.04   62.5    80   12.5   298    17.0   1011.9    0.00 
 238   18:40   0.02   62.1    82   12.7   296    17.2   1011.9    0.00 
 238   18:50   0.01   61.7    83   11.6   296    15.3   1011.9    0.00 
 238   19:00   0.00   61.4    84   11.5   296    15.0   1011.9    0.00 
 238   19:10   0.00   61.2    85   11.5   296    15.3   1011.9    0.00 
 238   19:20   0.00   61.1    85   11.0   298    14.8   1011.9    0.00 
 238   19:30   0.00   61.0    86   10.6   295    14.8   1011.9    0.00 
 238   19:40   0.00   61.1    86   10.0   294    14.4   1011.9    0.00 
 238   19:50   0.00   60.9    86   11.0   298    14.6   1012.2    0.00 
 238   20:00   0.00   60.7    86   11.1   299    14.6   1012.2    0.00 
 238   20:10   0.00   60.6    87    9.8   296    14.1   1012.2    0.00 
 238   20:20   0.00   60.7    86   11.0   296    13.7   1012.2    0.00 
 238   20:30   0.00   60.7    87   10.9   295    14.8   1012.2    0.00 
 238   20:40   0.00   60.6    87   10.7   296    14.2   1012.2    0.00 
 238   20:50   0.00   60.6    88    9.7   294    13.4   1012.5    0.00 
 238   21:00   0.00   60.7    88   10.2   295    14.0   1012.5    0.00 
 238   21:10   0.00   60.5    88   10.2   298    13.8   1012.5    0.00 
 238   21:20   0.00   60.5    88   10.4   292    14.0   1012.5    0.00 
 238   21:30   0.00   60.6    89   11.1   291    14.7   1012.5    0.00 
 238   21:40   0.00   60.6    89   11.0   293    14.9   1012.5    0.00 
 238   21:50   0.00   60.5    89   10.0   292    14.1   1012.5    0.00 
 238   22:00   0.00   60.4    90   10.7   292    14.7   1012.5    0.00 
 238   22:10   0.00   60.3    90    9.8   294    14.1   1012.5    0.00 
 238   22:20   0.00   60.2    90    9.5   292    13.2   1012.9    0.00 
 238   22:30   0.00   60.1    91    9.3   290    13.4   1012.9    0.00 
 238   22:40   0.00   60.1    91    9.5   290    12.5   1012.9    0.00 
 238   22:50   0.00   60.1    91    8.2   292    11.7   1012.9    0.00 
 238   23:00   0.00   60.0    91    8.8   291    11.5   1012.9    0.00 
 238   23:10   0.00   59.9    91    8.2   293    10.7   1012.9    0.00 
 238   23:20   0.00   59.8    91    7.9   295    11.4   1012.9    0.00 
 238   23:30   0.00   59.8    92    8.8   296    11.8   1012.9    0.00 
 238   23:40   0.00   59.6    92    8.3   298    12.1   1012.9    0.00 
 238   23:50   0.00   59.6    92    8.2   299    11.2   1012.9    0.00 
 239    0:00   0.00   59.9    92    8.8   299    12.4   1013.2    0.00 
 239    0:10   0.00   60.2    91    7.4   306    10.7   1013.2    0.00 
 239    0:20   0.00   60.1    91    8.2   308    11.0   1013.2    0.00 
 239    0:30   0.00   60.2    91    6.9   308     9.7   1013.2    0.00 
 239    0:40   0.00   60.2    91    5.7   308     8.2   1013.2    0.00 
 239    0:50   0.00   60.2    91    6.1   303     8.6   1013.2    0.00 
 239    1:00   0.00   60.2    91    6.7   302     9.6   1013.2    0.00 
 239    1:10   0.00   60.1    91    6.7   293     9.9   1013.2    0.00 
 239    1:20   0.00   60.1    91    7.3   303    10.1   1012.9    0.00 
 239    1:30   0.00   60.0    91    6.9   312    11.5   1013.2    0.00 
 239    1:40   0.00   60.0    91    7.3   299    10.5   1013.2    0.00 
 239    1:50   0.00   60.0    91    7.5   303    10.4   1013.2    0.00 
 239    2:00   0.00   60.0    91    6.3   289     8.8   1013.2    0.00 
 239    2:10   0.00   60.0    91    6.8   299     9.2   1013.2    0.00 
 239    2:20   0.00   60.0    91    6.6   296     9.7   1013.2    0.00 
 239    2:30   0.00   59.9    91    7.6   305    10.7   1013.2    0.00 
 239    2:40   0.00   60.0    91    7.0   294    10.2   1013.5    0.00 
 239    2:50   0.00   60.1    91    6.9   306     9.8   1013.2    0.00 
 239    3:00   0.00   60.0    91    7.6   285    11.0   1013.2    0.00 
 239    3:10   0.00   60.0    91    7.7   281    10.9   1013.5    0.00 
 239    3:20   0.00   59.7    92    7.6   301    10.7   1013.2    0.00 
 239    3:30   0.00   59.6    92    7.0   284    10.3   1013.5    0.00 
 239    3:40   0.00   59.7    92    7.5   287    10.1   1013.5    0.00 
 239    3:50   0.00   59.6    92    7.3   291    10.9   1013.5    0.00 
 239    4:00   0.00   59.4    92    6.0   310     9.1   1013.5    0.00 
 239    4:10   0.00   59.4    92    6.8   310     9.9   1013.5    0.00 
 239    4:20   0.00   59.3    92    6.6   309     9.3   1013.5    0.00 
 239    4:30   0.00   59.3    92    4.9   315     7.4   1013.5    0.00 
 239    4:40   0.00   59.3    93    6.7   300     9.9   1013.9    0.00 
 239    4:50   0.00   59.1    93    7.2   303     9.6   1013.9    0.00 
 239    5:00   0.00   58.9    93    6.4   308     8.9   1013.9    0.00 
 239    5:10   0.00   58.8    93    7.0   317     9.6   1013.9    0.00 
 239    5:20   0.00   58.7    94    6.6   305     9.5   1014.2    0.00 
 239    5:30   0.00   58.7    94    4.8   299     6.9   1014.2    0.00 
 239    5:40   0.00   58.7    94    5.1   320     7.8   1014.6    0.00 
 239    5:50   0.00   58.4    94    4.9   308     8.0   1014.6    0.00 
 239    6:00   0.00   58.3    94    4.4   287     7.1   1014.6    0.00 
 239    6:10   0.00   58.3    94    4.4   289     8.3   1014.6    0.00 
 239    6:20   0.01   58.2    94    6.1   281     8.4   1014.9    0.00 
 239    6:30   0.01   58.2    94    3.0   285     5.5   1014.9    0.00 
 239    6:40   0.02   58.2    94    4.1   316     5.9   1014.9    0.00 
 239    6:50   0.03   58.3    94    4.7   307     7.4   1014.9    0.00 
 239    7:00   0.03   58.3    94    4.6   275     7.8   1014.9    0.00 
 239    7:10   0.04   58.5    94    5.2   291     7.9   1014.9    0.00 
 239    7:20   0.05   58.4    94    5.4   312     8.3   1015.2    0.00 
 239    7:30   0.04   58.6    94    3.8   278     6.2   1015.2    0.00 
 239    7:40   0.05   58.7    94    4.3   276     7.9   1015.2    0.00 
 239    7:50   0.07   58.7    94    4.4   266     6.3   1015.6    0.00 
 239    8:00   0.07   58.8    94    5.4   271     7.1   1015.6    0.00 
 239    8:10   0.08   58.8    93    3.9   292     6.4   1015.6    0.00 
 239    8:20   0.08   59.0    93    5.0   290     8.3   1015.6    0.00 
 239    8:30   0.09   59.1    93    4.7   303     7.4   1015.6    0.00 
 239    8:40   0.09   59.2    92    5.4   300     7.5   1015.9    0.00 
 239    8:50   0.11   59.4    92    4.6   291     7.7   1015.9    0.00 
 239    9:00   0.12   59.6    91    4.7   299     7.2   1015.9    0.00 
 239    9:10   0.12   59.8    90    5.2   290     8.2   1016.3    0.00 
 239    9:20   0.14   59.9    90    5.5   277     7.5   1016.3    0.00 
 239    9:30   0.15   59.9    90    5.7   288     8.9   1015.9    0.00 
 239    9:40   0.18   60.2    89    7.0   307     9.3   1015.9    0.00 
 239    9:50   0.24   60.5    87    7.1   320    10.9   1015.9    0.00 
 239   10:00   0.28   61.1    86    5.8   303     8.7   1015.9    0.00 

Return to Bodega Marine Reserve graphs page.


Western Regional Climate Center,wrcc@dri.edu